Back to Top

Language: 

My Weather Underground Personal Weather Station Historical Data with Graphs...

Delerius Weather Station Historical Data
Daily Summary for February 6, 2018 Units:  English    Metric   Both
« Previous Day
Next Day »
Daily Weekly Monthly Yearly Custom
  High: Low: Average:
Temperature: 35.2 °F 29.7 °F 32.8 °F
Dew Point: 32.5 °F 26.7 °F 29.2 °F
Humidity: 92 % 75 % 87 %
Wind Speed: 9.0 mph 0.0 mph 3.2 mph
Wind Gust: 16.0 mph - -
Wind:- - WNW
Pressure: 30.21 in 30.03 in -
Precipitation: 0.00 in    
Historical Graphs
 
 
Tabular Data for February 6, 2018
Time Temperature Dew Point Pressure Wind Wind Speed Wind Gust Humidity Rainfall Rate (Hourly) solar Conditions
00:01 31.3 °F 28.7 °F 30.21 in Calm     90 % 0.00 in 0 W/m2
00:06 31.3 °F 28.7 °F 30.20 in Calm     90 % 0.00 in 0 W/m2
00:11 31.3 °F 28.7 °F 30.20 in Calm     90 % 0.00 in 0 W/m2
00:16 31.1 °F 28.5 °F 30.20 in Calm     90 % 0.00 in 0 W/m2
00:21 31.1 °F 28.5 °F 30.20 in Calm     90 % 0.00 in 0 W/m2
00:26 31.1 °F 28.5 °F 30.20 in Calm     90 % 0.00 in 0 W/m2
00:31 30.9 °F 28.6 °F 30.19 in Calm     91 % 0.00 in 0 W/m2
00:36 30.9 °F 28.6 °F 30.19 in Calm     91 % 0.00 in 0 W/m2
00:41 30.9 °F 28.6 °F 30.19 in Calm     91 % 0.00 in 0 W/m2
00:46 30.9 °F 28.6 °F 30.19 in Calm     91 % 0.00 in 0 W/m2
00:51 30.9 °F 28.6 °F 30.19 in Calm     91 % 0.00 in 0 W/m2
00:56 30.9 °F 28.6 °F 30.19 in Calm     91 % 0.00 in 0 W/m2
01:01 30.9 °F 28.6 °F 30.19 in Calm     91 % 0.00 in 0 W/m2
01:06 30.9 °F 28.6 °F 30.19 in Calm     91 % 0.00 in 0 W/m2
01:11 30.9 °F 28.6 °F 30.18 in Calm     91 % 0.00 in 0 W/m2
01:16 30.9 °F 28.6 °F 30.18 in Calm     91 % 0.00 in 0 W/m2
01:22 30.9 °F 28.6 °F 30.18 in Calm     91 % 0.00 in 0 W/m2
01:27 30.9 °F 28.6 °F 30.18 in Calm     91 % 0.00 in 0 W/m2
01:32 30.9 °F 28.6 °F 30.18 in Calm     91 % 0.00 in 0 W/m2
01:37 30.9 °F 28.6 °F 30.18 in Calm     91 % 0.00 in 0 W/m2
01:42 30.9 °F 28.6 °F 30.17 in Calm     91 % 0.00 in 0 W/m2
01:47 30.7 °F 28.4 °F 30.17 in Calm     91 % 0.00 in 0 W/m2
01:52 30.7 °F 28.4 °F 30.17 in Calm     91 % 0.00 in 0 W/m2
01:57 30.7 °F 28.7 °F 30.17 in Calm     92 % 0.00 in 0 W/m2
02:02 30.7 °F 28.4 °F 30.17 in Calm     91 % 0.00 in 0 W/m2
02:07 30.7 °F 28.4 °F 30.17 in Calm     91 % 0.00 in 0 W/m2
02:12 30.6 °F 28.2 °F 30.17 in Calm     91 % 0.00 in 0 W/m2
02:17 30.6 °F 28.2 °F 30.17 in Calm     91 % 0.00 in 0 W/m2
02:22 30.6 °F 28.2 °F 30.16 in Calm     91 % 0.00 in 0 W/m2
02:27 30.6 °F 28.2 °F 30.16 in Calm     91 % 0.00 in 0 W/m2
02:32 30.4 °F 28.1 °F 30.16 in Calm     91 % 0.00 in 0 W/m2
02:37 30.4 °F 28.1 °F 30.16 in Calm     91 % 0.00 in 0 W/m2
02:42 30.4 °F 28.1 °F 30.16 in Calm     91 % 0.00 in 0 W/m2
02:47 30.4 °F 28.1 °F 30.15 in Calm     91 % 0.00 in 0 W/m2
02:52 30.4 °F 28.1 °F 30.15 in Calm     91 % 0.00 in 0 W/m2
02:57 30.4 °F 28.3 °F 30.15 in Calm     92 % 0.00 in 0 W/m2
03:02 30.4 °F 28.3 °F 30.15 in Calm     92 % 0.00 in 0 W/m2
03:07 30.4 °F 28.3 °F 30.15 in Calm   2.0 mph 92 % 0.00 in 0 W/m2
03:12 30.6 °F 28.5 °F 30.15 in Calm     92 % 0.00 in 0 W/m2
03:17 30.6 °F 28.5 °F 30.14 in Calm     92 % 0.00 in 0 W/m2
03:22 30.6 °F 28.5 °F 30.14 in Calm     92 % 0.00 in 0 W/m2
03:27 30.6 °F 28.5 °F 30.14 in Calm     92 % 0.00 in 0 W/m2
03:32 30.6 °F 28.5 °F 30.14 in WNW 1.0 mph 2.0 mph 92 % 0.00 in 0 W/m2
03:37 30.6 °F 28.5 °F 30.14 in WNW 1.0 mph 2.0 mph 92 % 0.00 in 0 W/m2
03:42 30.4 °F 28.3 °F 30.14 in Calm     92 % 0.00 in 0 W/m2
03:47 30.4 °F 28.3 °F 30.14 in WNW 2.0 mph 4.0 mph 92 % 0.00 in 0 W/m2
03:52 30.6 °F 28.5 °F 30.13 in WNW 1.0 mph 2.0 mph 92 % 0.00 in 0 W/m2
03:57 30.6 °F 28.5 °F 30.13 in Calm     92 % 0.00 in 0 W/m2
04:02 30.6 °F 28.5 °F 30.13 in Calm     92 % 0.00 in 0 W/m2
04:07 30.6 °F 28.5 °F 30.13 in Calm     92 % 0.00 in 0 W/m2
04:12 30.4 °F 28.3 °F 30.13 in Calm     92 % 0.00 in 0 W/m2
04:17 30.2 °F 28.2 °F 30.13 in Calm     92 % 0.00 in 0 W/m2
04:22 30.0 °F 27.7 °F 30.13 in Calm     91 % 0.00 in 0 W/m2
04:27 29.8 °F 27.5 °F 30.12 in Calm   2.0 mph 91 % 0.00 in 0 W/m2
04:32 29.8 °F 27.5 °F 30.12 in Calm     91 % 0.00 in 0 W/m2
04:37 29.8 °F 27.8 °F 30.11 in WNW 1.0 mph 2.0 mph 92 % 0.00 in 0 W/m2
04:42 29.8 °F 27.5 °F 30.11 in Calm   2.0 mph 91 % 0.00 in 0 W/m2
04:47 29.7 °F 27.4 °F 30.11 in NW 4.0 mph 5.0 mph 91 % 0.00 in 0 W/m2
04:52 29.7 °F 27.4 °F 30.11 in WNW 1.0 mph 3.0 mph 91 % 0.00 in 0 W/m2
04:57 29.8 °F 27.8 °F 30.11 in NNE 2.0 mph 5.0 mph 92 % 0.00 in 0 W/m2
05:02 29.8 °F 27.5 °F 30.11 in NNE 1.0 mph 2.0 mph 91 % 0.00 in 0 W/m2
05:07 30.0 °F 27.7 °F 30.11 in WNW 3.0 mph 5.0 mph 91 % 0.00 in 0 W/m2
05:12 30.0 °F 27.7 °F 30.11 in Calm   2.0 mph 91 % 0.00 in 0 W/m2
05:17 30.2 °F 27.6 °F 30.11 in WNW 1.0 mph 2.0 mph 90 % 0.00 in 0 W/m2
05:22 30.4 °F 27.8 °F 30.11 in Calm     90 % 0.00 in 0 W/m2
05:27 30.4 °F 27.5 °F 30.11 in Calm     89 % 0.00 in 0 W/m2
05:33 30.4 °F 27.5 °F 30.10 in Calm     89 % 0.00 in 0 W/m2
05:38 30.4 °F 27.5 °F 30.10 in Calm     89 % 0.00 in 0 W/m2
05:43 30.4 °F 27.8 °F 30.10 in Calm     90 % 0.00 in 0 W/m2
05:48 30.4 °F 27.8 °F 30.10 in Calm     90 % 0.00 in 0 W/m2
05:53 30.4 °F 27.8 °F 30.10 in Calm     90 % 0.00 in 0 W/m2
05:58 30.2 °F 27.6 °F 30.10 in Calm     90 % 0.00 in 0 W/m2
06:03 30.2 °F 27.6 °F 30.10 in Calm     90 % 0.00 in 0 W/m2
06:08 30.2 °F 27.6 °F 30.10 in Calm     90 % 0.00 in 0 W/m2
06:13 30.0 °F 27.4 °F 30.09 in Calm     90 % 0.00 in 0 W/m2
06:18 30.0 °F 27.4 °F 30.09 in Calm     90 % 0.00 in 0 W/m2
06:23 30.0 °F 27.4 °F 30.09 in Calm     90 % 0.00 in 0 W/m2
06:28 30.0 °F 27.4 °F 30.09 in Calm     90 % 0.00 in 0 W/m2
06:33 30.0 °F 27.4 °F 30.09 in Calm     90 % 0.00 in 0 W/m2
06:38 30.0 °F 27.2 °F 30.08 in Calm     89 % 0.00 in 0 W/m2
06:43 30.0 °F 27.4 °F 30.08 in Calm     90 % 0.00 in 0 W/m2
06:48 30.0 °F 27.4 °F 30.08 in Calm     90 % 0.00 in 0 W/m2
06:53 30.0 °F 27.4 °F 30.08 in Calm     90 % 0.00 in 0 W/m2
06:58 30.0 °F 27.4 °F 30.08 in Calm     90 % 0.00 in 0 W/m2
07:03 30.0 °F 27.4 °F 30.08 in Calm     90 % 0.00 in 0 W/m2
07:08 30.2 °F 27.6 °F 30.08 in Calm     90 % 0.00 in 0 W/m2
07:13 30.2 °F 27.6 °F 30.08 in Calm     90 % 0.00 in 0 W/m2
07:18 30.4 °F 27.8 °F 30.08 in Calm     90 % 0.00 in 0 W/m2
07:23 30.4 °F 27.8 °F 30.08 in Calm     90 % 0.00 in 0 W/m2
07:28 30.4 °F 27.8 °F 30.08 in Calm     90 % 0.00 in 0 W/m2
07:33 30.6 °F 28.0 °F 30.09 in Calm     90 % 0.00 in 0 W/m2
07:38 30.6 °F 28.0 °F 30.08 in Calm   2.0 mph 90 % 0.00 in 0 W/m2
07:43 30.6 °F 28.0 °F 30.08 in Calm   2.0 mph 90 % 0.00 in 0 W/m2
07:48 30.6 °F 27.7 °F 30.08 in WNW 1.0 mph 4.0 mph 89 % 0.00 in 5 W/m2
07:53 30.7 °F 27.6 °F 30.08 in Calm     88 % 0.00 in 7 W/m2
07:58 30.7 °F 27.6 °F 30.08 in WNW 1.0 mph 5.0 mph 88 % 0.00 in 11 W/m2
08:03 30.9 °F 27.5 °F 30.08 in WNW 4.0 mph 7.0 mph 87 % 0.00 in 14 W/m2
08:08 31.3 °F 27.3 °F 30.08 in WNW 4.0 mph 8.0 mph 85 % 0.00 in 18 W/m2
08:13 31.5 °F 27.2 °F 30.08 in NW 4.0 mph 8.0 mph 84 % 0.00 in 12 W/m2
08:18 31.6 °F 27.1 °F 30.08 in WNW 6.0 mph 9.0 mph 83 % 0.00 in 16 W/m2
08:23 31.8 °F 27.0 °F 30.08 in WNW 4.0 mph 6.0 mph 82 % 0.00 in 16 W/m2
08:28 31.8 °F 27.0 °F 30.08 in WNW 6.0 mph 8.0 mph 82 % 0.00 in 18 W/m2
08:33 31.8 °F 26.7 °F 30.08 in West 4.0 mph 6.0 mph 81 % 0.00 in 21 W/m2
08:38 32.0 °F 26.8 °F 30.08 in West 3.0 mph 5.0 mph 81 % 0.00 in 26 W/m2
08:43 32.2 °F 27.0 °F 30.08 in WNW 4.0 mph 6.0 mph 81 % 0.00 in 32 W/m2
08:48 32.2 °F 27.0 °F 30.08 in West 2.0 mph 5.0 mph 81 % 0.00 in 30 W/m2
08:53 32.2 °F 27.0 °F 30.08 in West 2.0 mph 6.0 mph 81 % 0.00 in 30 W/m2
08:58 32.2 °F 27.0 °F 30.08 in WSW 5.0 mph 8.0 mph 81 % 0.00 in 28 W/m2
09:04 32.2 °F 27.0 °F 30.08 in West 4.0 mph 6.0 mph 81 % 0.00 in 25 W/m2
09:09 32.2 °F 27.3 °F 30.08 in West 4.0 mph 7.0 mph 82 % 0.00 in 26 W/m2
09:14 32.2 °F 27.6 °F 30.08 in West 2.0 mph 5.0 mph 83 % 0.00 in 32 W/m2
09:19 32.0 °F 27.4 °F 30.08 in West 3.0 mph 5.0 mph 83 % 0.00 in 37 W/m2
09:24 32.0 °F 27.7 °F 30.08 in WSW 3.0 mph 5.0 mph 84 % 0.00 in 42 W/m2
09:29 32.0 °F 27.7 °F 30.08 in West 2.0 mph 5.0 mph 84 % 0.00 in 47 W/m2
09:34 32.0 °F 27.7 °F 30.08 in West 2.0 mph 6.0 mph 84 % 0.00 in 69 W/m2
09:39 32.0 °F 27.7 °F 30.08 in WSW 2.0 mph 5.0 mph 84 % 0.00 in 76 W/m2
09:44 32.2 °F 27.9 °F 30.08 in WSW 2.0 mph 4.0 mph 84 % 0.00 in 90 W/m2
09:49 32.2 °F 28.2 °F 30.08 in WSW 2.0 mph 4.0 mph 85 % 0.00 in 93 W/m2
09:54 32.4 °F 28.1 °F 30.08 in Calm   2.0 mph 84 % 0.00 in 88 W/m2
09:59 32.4 °F 28.1 °F 30.08 in WSW 1.0 mph 3.0 mph 84 % 0.00 in 83 W/m2
10:04 32.5 °F 28.2 °F 30.07 in WSW 2.0 mph 4.0 mph 84 % 0.00 in 102 W/m2
10:09 32.5 °F 28.2 °F 30.08 in WSW 1.0 mph 3.0 mph 84 % 0.00 in 100 W/m2
10:14 32.7 °F 28.1 °F 30.08 in WSW 1.0 mph 2.0 mph 83 % 0.00 in 97 W/m2
10:19 32.7 °F 28.1 °F 30.08 in WSW 2.0 mph 4.0 mph 83 % 0.00 in 83 W/m2
10:24 32.9 °F 28.0 °F 30.07 in WSW 1.0 mph 2.0 mph 82 % 0.00 in 74 W/m2
10:29 33.1 °F 28.2 °F 30.07 in WSW 1.0 mph 2.0 mph 82 % 0.00 in 74 W/m2
10:34 33.1 °F 28.2 °F 30.07 in Calm   1.0 mph 82 % 0.00 in 81 W/m2
10:39 33.3 °F 28.4 °F 30.07 in Calm     82 % 0.00 in 88 W/m2
10:44 33.3 °F 28.4 °F 30.07 in Calm     82 % 0.00 in 97 W/m2
10:49 33.4 °F 28.2 °F 30.07 in Calm     81 % 0.00 in 114 W/m2
10:54 33.4 °F 28.5 °F 30.07 in Calm     82 % 0.00 in 121 W/m2
10:59 33.6 °F 28.4 °F 30.07 in Calm     81 % 0.00 in 118 W/m2
11:04 34.0 °F 28.8 °F 30.07 in Calm     81 % 0.00 in 116 W/m2
11:09 34.0 °F 28.8 °F 30.07 in Calm     81 % 0.00 in 118 W/m2
11:14 34.2 °F 28.6 °F 30.07 in Calm     80 % 0.00 in 107 W/m2
11:19 34.3 °F 28.8 °F 30.07 in Calm     80 % 0.00 in 128 W/m2
11:24 34.5 °F 29.0 °F 30.07 in Calm     80 % 0.00 in 134 W/m2
11:29 34.5 °F 28.7 °F 30.07 in Calm   2.0 mph 79 % 0.00 in 123 W/m2
11:34 34.9 °F 28.7 °F 30.07 in WNW 1.0 mph 5.0 mph 78 % 0.00 in 95 W/m2
11:39 35.1 °F 28.6 °F 30.07 in WNW 5.0 mph 7.0 mph 77 % 0.00 in 83 W/m2
11:44 35.2 °F 28.4 °F 30.07 in WNW 5.0 mph 8.0 mph 76 % 0.00 in 69 W/m2
11:49 35.2 °F 28.1 °F 30.07 in NW 3.0 mph 7.0 mph 75 % 0.00 in 58 W/m2
11:54 35.2 °F 28.1 °F 30.07 in WNW 5.0 mph 8.0 mph 75 % 0.00 in 63 W/m2
11:59 35.2 °F 28.4 °F 30.06 in NW 4.0 mph 8.0 mph 76 % 0.00 in 74 W/m2
12:05 35.1 °F 28.3 °F 30.06 in WNW 3.0 mph 6.0 mph 76 % 0.00 in 60 W/m2
12:10 35.1 °F 28.3 °F 30.06 in WNW 3.0 mph 6.0 mph 76 % 0.00 in 58 W/m2
12:15 35.1 °F 28.3 °F 30.06 in WNW 3.0 mph 6.0 mph 76 % 0.00 in 56 W/m2
12:20 35.1 °F 28.6 °F 30.06 in NW 2.0 mph 6.0 mph 77 % 0.00 in 56 W/m2
12:25 35.1 °F 28.6 °F 30.06 in NW 1.0 mph 4.0 mph 77 % 0.00 in 58 W/m2
12:30 35.1 °F 28.9 °F 30.06 in WNW 2.0 mph 5.0 mph 78 % 0.00 in 56 W/m2
12:35 35.1 °F 28.9 °F 30.06 in WNW 4.0 mph 8.0 mph 78 % 0.00 in 60 W/m2
12:40 35.1 °F 28.9 °F 30.05 in NW 5.0 mph 7.0 mph 78 % 0.00 in 60 W/m2
12:45 35.1 °F 29.2 °F 30.06 in NW 4.0 mph 7.0 mph 79 % 0.00 in 62 W/m2
12:50 35.1 °F 29.2 °F 30.05 in NW 5.0 mph 8.0 mph 79 % 0.00 in 70 W/m2
12:55 34.9 °F 29.3 °F 30.05 in NW 5.0 mph 8.0 mph 80 % 0.00 in 83 W/m2
13:00 34.9 °F 29.3 °F 30.05 in WNW 5.0 mph 7.0 mph 80 % 0.00 in 100 W/m2
13:05 35.1 °F 29.8 °F 30.05 in WNW 6.0 mph 9.0 mph 81 % 0.00 in 72 W/m2
13:10 35.1 °F 29.8 °F 30.05 in NW 5.0 mph 9.0 mph 81 % 0.00 in 67 W/m2
13:15 34.9 °F 29.6 °F 30.04 in NW 4.0 mph 8.0 mph 81 % 0.00 in 72 W/m2
13:20 35.1 °F 30.1 °F 30.04 in NW 3.0 mph 6.0 mph 82 % 0.00 in 63 W/m2
13:25 35.1 °F 30.1 °F 30.04 in NW 4.0 mph 7.0 mph 82 % 0.00 in 56 W/m2
13:30 35.1 °F 30.1 °F 30.04 in NW 5.0 mph 8.0 mph 82 % 0.00 in 54 W/m2
13:35 35.1 °F 30.1 °F 30.04 in WNW 4.0 mph 8.0 mph 82 % 0.00 in 74 W/m2
13:40 35.1 °F 30.1 °F 30.04 in WNW 4.0 mph 7.0 mph 82 % 0.00 in 79 W/m2
13:45 35.1 °F 30.4 °F 30.04 in WNW 3.0 mph 5.0 mph 83 % 0.00 in 65 W/m2
13:50 35.1 °F 30.4 °F 30.04 in WNW 3.0 mph 7.0 mph 83 % 0.00 in 60 W/m2
13:55 35.2 °F 30.6 °F 30.04 in WNW 4.0 mph 9.0 mph 83 % 0.00 in 56 W/m2
14:00 35.2 °F 30.6 °F 30.04 in WNW 8.0 mph 12.0 mph 83 % 0.00 in 53 W/m2
14:05 35.1 °F 30.4 °F 30.04 in WNW 4.0 mph 8.0 mph 83 % 0.00 in 65 W/m2
14:10 35.1 °F 30.7 °F 30.04 in WNW 5.0 mph 8.0 mph 84 % 0.00 in 62 W/m2
14:15 35.1 °F 30.7 °F 30.04 in WNW 6.0 mph 10.0 mph 84 % 0.00 in 60 W/m2
14:20 35.1 °F 30.7 °F 30.04 in NW 7.0 mph 14.0 mph 84 % 0.00 in 51 W/m2
14:25 34.9 °F 30.5 °F 30.03 in WNW 8.0 mph 12.0 mph 84 % 0.00 in 51 W/m2
14:30 34.9 °F 30.5 °F 30.03 in WNW 9.0 mph 12.0 mph 84 % 0.00 in 74 W/m2
14:35 34.9 °F 30.8 °F 30.03 in WNW 8.0 mph 13.0 mph 85 % 0.00 in 93 W/m2
14:40 34.9 °F 30.8 °F 30.03 in WNW 8.0 mph 14.0 mph 85 % 0.00 in 114 W/m2
14:45 34.9 °F 31.1 °F 30.03 in WNW 7.0 mph 10.0 mph 86 % 0.00 in 105 W/m2
14:50 35.1 °F 31.3 °F 30.04 in WNW 9.0 mph 14.0 mph 86 % 0.00 in 155 W/m2
14:55 35.1 °F 31.6 °F 30.04 in WNW 8.0 mph 13.0 mph 87 % 0.00 in 93 W/m2
15:00 35.1 °F 31.6 °F 30.03 in WNW 7.0 mph 9.0 mph 87 % 0.00 in 86 W/m2
15:05 35.2 °F 31.8 °F 30.03 in WNW 4.0 mph 9.0 mph 87 % 0.00 in 79 W/m2
15:10 35.2 °F 31.8 °F 30.03 in NW 5.0 mph 10.0 mph 87 % 0.00 in 63 W/m2
15:15 35.2 °F 31.8 °F 30.04 in NW 6.0 mph 9.0 mph 87 % 0.00 in 47 W/m2
15:20 35.2 °F 31.8 °F 30.04 in NW 8.0 mph 11.0 mph 87 % 0.00 in 49 W/m2
15:25 35.2 °F 32.0 °F 30.04 in NW 5.0 mph 9.0 mph 88 % 0.00 in 42 W/m2
15:30 35.2 °F 32.0 °F 30.04 in NW 7.0 mph 13.0 mph 88 % 0.00 in 47 W/m2
15:35 35.2 °F 32.0 °F 30.04 in NW 5.0 mph 8.0 mph 88 % 0.00 in 42 W/m2
15:40 35.2 °F 32.3 °F 30.04 in WNW 7.0 mph 13.0 mph 89 % 0.00 in 33 W/m2
15:45 35.1 °F 32.1 °F 30.04 in WNW 8.0 mph 12.0 mph 89 % 0.00 in 26 W/m2
15:50 34.9 °F 32.0 °F 30.04 in WNW 7.0 mph 12.0 mph 89 % 0.00 in 25 W/m2
15:55 34.9 °F 32.2 °F 30.04 in WNW 7.0 mph 12.0 mph 90 % 0.00 in 33 W/m2
16:00 34.9 °F 32.2 °F 30.04 in NW 6.0 mph 9.0 mph 90 % 0.00 in 32 W/m2
16:05 34.9 °F 32.2 °F 30.04 in WNW 5.0 mph 8.0 mph 90 % 0.00 in 25 W/m2
16:10 34.7 °F 32.1 °F 30.04 in NW 5.0 mph 9.0 mph 90 % 0.00 in 21 W/m2
16:15 34.7 °F 32.3 °F 30.05 in NW 4.0 mph 6.0 mph 91 % 0.00 in 25 W/m2
16:20 34.9 °F 32.5 °F 30.05 in NW 6.0 mph 10.0 mph 91 % 0.00 in 12 W/m2
16:25 34.9 °F 32.5 °F 30.05 in NW 4.0 mph 9.0 mph 91 % 0.00 in 9 W/m2
16:30 34.9 °F 32.5 °F 30.05 in NW 3.0 mph 7.0 mph 91 % 0.00 in 11 W/m2
16:35 34.9 °F 32.5 °F 30.05 in NW 4.0 mph 8.0 mph 91 % 0.00 in 9 W/m2
16:40 34.9 °F 32.5 °F 30.05 in WNW 4.0 mph 8.0 mph 91 % 0.00 in 7 W/m2
16:45 34.9 °F 32.5 °F 30.05 in WNW 4.0 mph 9.0 mph 91 % 0.00 in 5 W/m2
16:50 34.9 °F 32.5 °F 30.05 in NW 6.0 mph 9.0 mph 91 % 0.00 in 0 W/m2
16:56 34.7 °F 32.3 °F 30.05 in NW 4.0 mph 8.0 mph 91 % 0.00 in 0 W/m2
17:01 34.7 °F 32.3 °F 30.05 in WNW 5.0 mph 10.0 mph 91 % 0.00 in 0 W/m2
17:06 34.7 °F 32.3 °F 30.06 in WNW 4.0 mph 8.0 mph 91 % 0.00 in 0 W/m2
17:11 34.7 °F 32.3 °F 30.06 in NW 6.0 mph 11.0 mph 91 % 0.00 in 0 W/m2
17:16 34.7 °F 32.3 °F 30.06 in NW 6.0 mph 11.0 mph 91 % 0.00 in 0 W/m2
17:21 34.5 °F 32.2 °F 30.06 in WNW 6.0 mph 9.0 mph 91 % 0.00 in 0 W/m2
17:26 34.5 °F 32.2 °F 30.06 in NW 7.0 mph 13.0 mph 91 % 0.00 in 0 W/m2
17:31 34.5 °F 32.2 °F 30.06 in NW 5.0 mph 10.0 mph 91 % 0.00 in 0 W/m2
17:36 34.5 °F 32.2 °F 30.06 in NW 6.0 mph 12.0 mph 91 % 0.00 in 0 W/m2
17:41 34.5 °F 32.4 °F 30.06 in WNW 6.0 mph 9.0 mph 92 % 0.00 in 0 W/m2
17:46 34.5 °F 32.4 °F 30.07 in WNW 5.0 mph 11.0 mph 92 % 0.00 in 0 W/m2
17:51 34.5 °F 32.2 °F 30.07 in WNW 5.0 mph 10.0 mph 91 % 0.00 in 0 W/m2
17:56 34.5 °F 32.2 °F 30.07 in NW 4.0 mph 9.0 mph 91 % 0.00 in 0 W/m2
18:01 34.5 °F 32.2 °F 30.07 in NW 5.0 mph 7.0 mph 91 % 0.00 in 0 W/m2
18:06 34.5 °F 32.2 °F 30.07 in WNW 5.0 mph 7.0 mph 91 % 0.00 in 0 W/m2
18:11 34.5 °F 32.2 °F 30.07 in WNW 6.0 mph 9.0 mph 91 % 0.00 in 0 W/m2
18:16 34.5 °F 32.2 °F 30.07 in NW 5.0 mph 9.0 mph 91 % 0.00 in 0 W/m2
18:21 34.5 °F 32.2 °F 30.07 in WNW 6.0 mph 10.0 mph 91 % 0.00 in 0 W/m2
18:31 34.5 °F 32.2 °F 30.07 in WNW 7.0 mph 11.0 mph 91 % 0.00 in 0 W/m2
18:36 34.5 °F 31.9 °F 30.07 in NW 8.0 mph 11.0 mph 90 % 0.00 in 0 W/m2
18:41 34.5 °F 31.9 °F 30.08 in NW 9.0 mph 16.0 mph 90 % 0.00 in 0 W/m2
18:46 34.5 °F 31.6 °F 30.08 in NW 7.0 mph 13.0 mph 89 % 0.00 in 0 W/m2
18:51 34.7 °F 31.8 °F 30.08 in WNW 6.0 mph 13.0 mph 89 % 0.00 in 0 W/m2
18:56 34.7 °F 31.5 °F 30.08 in NW 7.0 mph 11.0 mph 88 % 0.00 in 0 W/m2
19:01 34.7 °F 31.5 °F 30.08 in NW 6.0 mph 13.0 mph 88 % 0.00 in 0 W/m2
19:06 34.7 °F 31.2 °F 30.08 in NW 9.0 mph 13.0 mph 87 % 0.00 in 0 W/m2
19:11 34.7 °F 31.2 °F 30.08 in NW 7.0 mph 11.0 mph 87 % 0.00 in 0 W/m2
19:16 34.7 °F 31.2 °F 30.08 in NW 7.0 mph 10.0 mph 87 % 0.00 in 0 W/m2
19:21 34.5 °F 31.0 °F 30.08 in WNW 7.0 mph 15.0 mph 87 % 0.00 in 0 W/m2
19:26 34.5 °F 31.0 °F 30.08 in NW 7.0 mph 11.0 mph 87 % 0.00 in 0 W/m2
19:31 34.5 °F 30.8 °F 30.09 in NW 6.0 mph 9.0 mph 86 % 0.00 in 0 W/m2
19:36 34.5 °F 30.8 °F 30.09 in NW 5.0 mph 10.0 mph 86 % 0.00 in 0 W/m2
19:41 34.5 °F 30.8 °F 30.09 in NW 7.0 mph 12.0 mph 86 % 0.00 in 0 W/m2
19:46 34.3 °F 30.6 °F 30.09 in NW 6.0 mph 10.0 mph 86 % 0.00 in 0 W/m2
19:51 34.3 °F 30.6 °F 30.08 in NW 9.0 mph 14.0 mph 86 % 0.00 in 0 W/m2
19:56 34.3 °F 30.6 °F 30.09 in NW 6.0 mph 11.0 mph 86 % 0.00 in 0 W/m2
20:01 34.3 °F 30.6 °F 30.09 in NW 6.0 mph 9.0 mph 86 % 0.00 in 0 W/m2
20:06 34.3 °F 30.6 °F 30.09 in NW 7.0 mph 14.0 mph 86 % 0.00 in 0 W/m2
20:11 34.2 °F 30.4 °F 30.09 in NW 7.0 mph 12.0 mph 86 % 0.00 in 0 W/m2
20:16 34.2 °F 30.4 °F 30.09 in WNW 6.0 mph 9.0 mph 86 % 0.00 in 0 W/m2
20:21 34.2 °F 30.4 °F 30.09 in NW 6.0 mph 9.0 mph 86 % 0.00 in 0 W/m2
20:26 34.2 °F 30.1 °F 30.09 in NW 6.0 mph 11.0 mph 85 % 0.00 in 0 W/m2
20:31 34.2 °F 30.1 °F 30.09 in WNW 7.0 mph 13.0 mph 85 % 0.00 in 0 W/m2
20:36 34.2 °F 30.1 °F 30.10 in WNW 6.0 mph 10.0 mph 85 % 0.00 in 0 W/m2
20:41 34.0 °F 29.9 °F 30.10 in NW 7.0 mph 10.0 mph 85 % 0.00 in 0 W/m2
20:46 34.0 °F 29.9 °F 30.10 in WNW 5.0 mph 7.0 mph 85 % 0.00 in 0 W/m2
20:51 34.0 °F 29.9 °F 30.10 in NW 5.0 mph 8.0 mph 85 % 0.00 in 0 W/m2
20:56 34.0 °F 29.9 °F 30.10 in NW 5.0 mph 8.0 mph 85 % 0.00 in 0 W/m2
21:01 34.0 °F 29.7 °F 30.10 in NW 6.0 mph 11.0 mph 84 % 0.00 in 0 W/m2
21:06 34.0 °F 29.7 °F 30.10 in NW 5.0 mph 8.0 mph 84 % 0.00 in 0 W/m2
21:11 34.0 °F 29.7 °F 30.10 in WNW 6.0 mph 11.0 mph 84 % 0.00 in 0 W/m2
21:16 34.0 °F 29.7 °F 30.10 in WNW 6.0 mph 9.0 mph 84 % 0.00 in 0 W/m2
21:21 34.0 °F 29.7 °F 30.09 in WNW 4.0 mph 7.0 mph 84 % 0.00 in 0 W/m2
21:26 33.8 °F 29.5 °F 30.09 in WNW 5.0 mph 8.0 mph 84 % 0.00 in 0 W/m2
21:31 33.6 °F 29.3 °F 30.09 in NW 5.0 mph 9.0 mph 84 % 0.00 in 0 W/m2
21:36 33.6 °F 29.3 °F 30.09 in WNW 3.0 mph 8.0 mph 84 % 0.00 in 0 W/m2
21:41 33.6 °F 29.3 °F 30.09 in NW 3.0 mph 7.0 mph 84 % 0.00 in 0 W/m2
21:47 33.6 °F 29.3 °F 30.09 in WNW 7.0 mph 11.0 mph 84 % 0.00 in 0 W/m2
21:51 33.6 °F 29.0 °F 30.09 in NW 6.0 mph 12.0 mph 83 % 0.00 in 0 W/m2
21:56 33.6 °F 29.0 °F 30.10 in WNW 6.0 mph 9.0 mph 83 % 0.00 in 0 W/m2
22:02 33.6 °F 29.0 °F 30.10 in WNW 4.0 mph 7.0 mph 83 % 0.00 in 0 W/m2
22:06 33.4 °F 28.8 °F 30.10 in WNW 4.0 mph 8.0 mph 83 % 0.00 in 0 W/m2
22:11 33.4 °F 28.8 °F 30.10 in NW 6.0 mph 10.0 mph 83 % 0.00 in 0 W/m2
22:17 33.4 °F 28.8 °F 30.10 in WNW 5.0 mph 9.0 mph 83 % 0.00 in 0 W/m2
22:22 33.4 °F 28.8 °F 30.10 in WNW 7.0 mph 10.0 mph 83 % 0.00 in 0 W/m2
22:27 33.4 °F 28.8 °F 30.10 in WNW 6.0 mph 10.0 mph 83 % 0.00 in 0 W/m2
22:32 33.4 °F 28.8 °F 30.10 in WNW 8.0 mph 13.0 mph 83 % 0.00 in 0 W/m2
22:37 33.4 °F 28.8 °F 30.10 in WNW 5.0 mph 9.0 mph 83 % 0.00 in 0 W/m2
22:42 33.4 °F 28.8 °F 30.10 in NW 6.0 mph 9.0 mph 83 % 0.00 in 0 W/m2
22:47 33.4 °F 28.8 °F 30.10 in WNW 6.0 mph 10.0 mph 83 % 0.00 in 0 W/m2
22:52 33.3 °F 28.7 °F 30.10 in WNW 7.0 mph 10.0 mph 83 % 0.00 in 0 W/m2
22:57 33.3 °F 28.7 °F 30.10 in WNW 7.0 mph 12.0 mph 83 % 0.00 in 0 W/m2
23:02 33.3 °F 28.7 °F 30.10 in NW 6.0 mph 9.0 mph 83 % 0.00 in 0 W/m2
23:07 33.1 °F 28.5 °F 30.10 in WNW 7.0 mph 11.0 mph 83 % 0.00 in 0 W/m2
23:12 33.1 °F 28.2 °F 30.10 in WNW 6.0 mph 10.0 mph 82 % 0.00 in 0 W/m2
23:17 32.9 °F 28.0 °F 30.10 in WNW 6.0 mph 10.0 mph 82 % 0.00 in 0 W/m2
23:22 32.7 °F 27.8 °F 30.10 in WNW 6.0 mph 10.0 mph 82 % 0.00 in 0 W/m2
23:27 32.7 °F 27.8 °F 30.10 in WNW 5.0 mph 10.0 mph 82 % 0.00 in 0 W/m2
23:32 32.5 °F 27.7 °F 30.11 in WNW 5.0 mph 7.0 mph 82 % 0.00 in 0 W/m2
23:37 32.5 °F 27.7 °F 30.11 in WNW 6.0 mph 9.0 mph 82 % 0.00 in 0 W/m2
23:42 32.5 °F 28.0 °F 30.10 in WNW 5.0 mph 10.0 mph 83 % 0.00 in 0 W/m2
23:47 32.4 °F 27.8 °F 30.10 in NW 6.0 mph 10.0 mph 83 % 0.00 in 0 W/m2
23:52 32.4 °F 27.8 °F 30.11 in WNW 6.0 mph 11.0 mph 83 % 0.00 in 0 W/m2
23:57 32.4 °F 27.5 °F 30.11 in WNW 7.0 mph 11.0 mph 82 % 0.00 in 0 W/m2
Delerius-Weather
Compliments of Weather Underground - 2.25 mb

Data updates at regular intervals.